createdAt,value
2023-03-19T00:01:06.701Z,6.31
2023-03-19T00:03:44.281Z,6.28
2023-03-19T00:06:23.009Z,6.25
2023-03-19T00:08:50.665Z,6.22
2023-03-19T00:11:17.955Z,6.20
2023-03-19T00:13:54.662Z,6.18
2023-03-19T00:16:22.172Z,6.16
2023-03-19T00:18:49.531Z,6.14
2023-03-19T00:21:20.853Z,6.12
2023-03-19T00:23:48.414Z,6.10
2023-03-19T00:26:16.248Z,6.08
2023-03-19T00:28:44.286Z,6.06
2023-03-19T00:31:14.439Z,6.04
2023-03-19T00:33:41.831Z,6.02
2023-03-19T00:36:30.440Z,6.00
2023-03-19T00:39:00.523Z,5.98
2023-03-19T00:41:29.186Z,5.95
2023-03-19T00:44:08.175Z,5.91
2023-03-19T00:46:40.281Z,5.89
2023-03-19T00:49:18.897Z,5.86
2023-03-19T00:51:47.832Z,5.83
2023-03-19T00:54:16.066Z,5.80
2023-03-19T00:56:45.985Z,5.78
2023-03-19T00:59:16.155Z,5.74
2023-03-19T01:01:44.324Z,5.72
2023-03-19T01:04:13.372Z,5.69
2023-03-19T01:06:41.011Z,5.66
2023-03-19T01:09:17.442Z,5.63
2023-03-19T01:11:44.957Z,5.60
2023-03-19T01:14:12.726Z,5.58
2023-03-19T01:16:40.046Z,5.54
2023-03-19T01:19:07.330Z,5.54
2023-03-19T01:21:36.638Z,5.50
2023-03-19T01:24:04.187Z,5.47
2023-03-19T01:26:51.511Z,5.45
2023-03-19T01:29:32.343Z,5.41
2023-03-19T01:32:07.628Z,5.38
2023-03-19T01:34:42.611Z,5.35
2023-03-19T01:37:12.819Z,5.32
2023-03-19T01:39:41.362Z,5.29
2023-03-19T01:42:18.198Z,5.26
2023-03-19T01:45:20.614Z,5.24
2023-03-19T01:48:08.558Z,5.21
2023-03-19T01:50:54.005Z,5.16
2023-03-19T01:53:41.563Z,5.13
2023-03-19T01:56:30.114Z,5.11
2023-03-19T01:59:08.251Z,5.08
2023-03-19T02:02:02.601Z,5.04
2023-03-19T02:04:31.910Z,5.01
2023-03-19T02:07:09.728Z,4.98
2023-03-19T02:09:38.138Z,4.95
2023-03-19T02:12:06.134Z,4.93
2023-03-19T02:14:33.936Z,4.91
2023-03-19T02:17:12.396Z,4.88
2023-03-19T02:19:48.550Z,4.84
2023-03-19T02:22:17.918Z,4.81
2023-03-19T02:24:52.990Z,4.79
2023-03-19T02:27:21.972Z,4.78
2023-03-19T02:29:51.787Z,4.75
2023-03-19T02:32:20.284Z,4.73
2023-03-19T02:34:48.037Z,4.71
2023-03-19T02:37:20.078Z,4.69
2023-03-19T02:39:55.210Z,4.69
2023-03-19T02:42:27.585Z,4.67
2023-03-19T02:44:54.931Z,4.67
2023-03-19T02:47:22.386Z,4.65
2023-03-19T02:49:49.960Z,4.63
2023-03-19T02:52:17.750Z,4.63
2023-03-19T02:54:46.983Z,4.60
2023-03-19T02:57:14.178Z,4.59
2023-03-19T02:59:41.523Z,4.58
2023-03-19T03:02:10.280Z,4.55
2023-03-19T03:04:38.449Z,4.54
2023-03-19T03:07:06.360Z,4.52
2023-03-19T03:09:33.487Z,4.50
2023-03-19T03:12:01.127Z,4.49
2023-03-19T03:14:28.773Z,4.48
2023-03-19T03:16:57.472Z,4.47
2023-03-19T03:19:25.081Z,4.46
2023-03-19T03:21:52.845Z,4.46
2023-03-19T03:24:19.992Z,4.45
2023-03-19T03:26:47.151Z,4.44
2023-03-19T03:29:15.773Z,4.43
2023-03-19T03:31:42.970Z,4.43
2023-03-19T03:34:10.331Z,4.42
2023-03-19T03:36:38.104Z,4.42
2023-03-19T03:39:05.490Z,4.41
2023-03-19T03:41:33.300Z,4.39
2023-03-19T03:44:00.850Z,4.40
2023-03-19T03:46:28.748Z,4.40
2023-03-19T03:48:56.522Z,4.40
2023-03-19T03:51:27.048Z,4.40
2023-03-19T03:53:54.275Z,4.39
2023-03-19T03:56:21.549Z,4.39
2023-03-19T03:58:48.824Z,4.39
2023-03-19T04:01:17.553Z,4.37
2023-03-19T04:03:45.973Z,4.36
2023-03-19T04:06:17.039Z,4.34
2023-03-19T04:08:44.893Z,4.31
2023-03-19T04:11:12.675Z,4.30
2023-03-19T04:13:39.896Z,4.30
2023-03-19T04:16:08.201Z,4.28
2023-03-19T04:18:36.143Z,4.27
2023-03-19T04:21:03.696Z,4.24
2023-03-19T04:23:31.165Z,4.22
2023-03-19T04:26:03.259Z,4.20
2023-03-19T04:28:31.360Z,4.16
2023-03-19T04:31:03.679Z,4.15
2023-03-19T04:33:32.371Z,4.14
2023-03-19T04:36:00.695Z,4.13
2023-03-19T04:38:29.151Z,4.12
2023-03-19T04:41:00.105Z,4.10
2023-03-19T04:43:28.745Z,4.08
2023-03-19T04:45:55.897Z,4.06
2023-03-19T04:48:23.274Z,4.04
2023-03-19T04:50:53.434Z,4.02
2023-03-19T04:53:21.855Z,4.01
2023-03-19T04:55:49.611Z,4.00
2023-03-19T04:58:18.297Z,4.01
2023-03-19T05:00:48.568Z,4.03
2023-03-19T05:03:18.962Z,4.04
2023-03-19T05:05:46.529Z,4.06
2023-03-19T05:08:14.068Z,4.07
2023-03-19T05:10:41.733Z,4.12
2023-03-19T05:13:09.544Z,4.14
2023-03-19T05:15:42.794Z,4.17
2023-03-19T05:18:10.881Z,4.20
2023-03-19T05:20:40.518Z,4.27
2023-03-19T05:23:11.917Z,4.36
2023-03-19T05:25:46.463Z,4.57
2023-03-19T05:28:16.556Z,4.94
2023-03-19T05:30:44.452Z,5.48
2023-03-19T05:33:18.865Z,6.33
2023-03-19T05:35:49.921Z,7.54
2023-03-19T05:38:22.363Z,9.05
2023-03-19T05:40:55.666Z,10.34
2023-03-19T05:43:33.670Z,11.50
2023-03-19T05:46:01.793Z,12.43
2023-03-19T05:48:30.625Z,13.31
2023-03-19T05:50:59.751Z,14.20
2023-03-19T05:53:32.198Z,14.95
2023-03-19T05:56:18.185Z,15.75
2023-03-19T05:59:11.561Z,16.58
2023-03-19T06:01:40.818Z,17.08
2023-03-19T06:04:08.487Z,17.40
2023-03-19T06:06:36.586Z,17.69
2023-03-19T06:09:03.743Z,18.11
2023-03-19T06:11:36.878Z,18.61
2023-03-19T06:14:24.467Z,19.08
2023-03-19T06:17:09.487Z,19.16
2023-03-19T06:19:37.205Z,18.92
2023-03-19T06:22:06.118Z,18.49
2023-03-19T06:24:33.901Z,18.00
2023-03-19T06:27:01.600Z,17.76
2023-03-19T06:29:29.339Z,17.92
2023-03-19T06:32:00.795Z,18.49
2023-03-19T06:34:39.979Z,19.25
2023-03-19T06:37:07.612Z,19.97
2023-03-19T06:39:35.135Z,20.47
2023-03-19T06:42:02.362Z,21.20
2023-03-19T06:44:30.087Z,21.83
2023-03-19T06:46:57.319Z,22.44
2023-03-19T06:49:25.065Z,22.95
2023-03-19T06:51:52.366Z,23.13
2023-03-19T06:54:19.503Z,23.20
2023-03-19T06:56:47.352Z,23.36
2023-03-19T06:59:14.525Z,23.21
2023-03-19T07:01:42.267Z,22.83
2023-03-19T07:04:09.556Z,22.49
2023-03-19T07:06:36.972Z,22.23
2023-03-19T07:09:04.378Z,21.91
2023-03-19T07:11:33.204Z,21.56
2023-03-19T07:14:02.395Z,21.06
2023-03-19T07:16:29.662Z,20.29
2023-03-19T07:18:57.060Z,19.80
2023-03-19T07:21:24.826Z,19.65
2023-03-19T07:23:52.196Z,19.77
2023-03-19T07:26:19.611Z,19.98
2023-03-19T07:28:48.591Z,20.54
2023-03-19T07:31:17.161Z,21.45
2023-03-19T07:33:44.330Z,21.90
2023-03-19T07:36:13.891Z,22.14
2023-03-19T07:38:41.127Z,22.73
2023-03-19T07:41:08.484Z,23.42
2023-03-19T07:43:36.077Z,24.13
2023-03-19T07:46:06.384Z,24.67
2023-03-19T07:48:33.740Z,25.16
2023-03-19T07:51:01.243Z,25.48
2023-03-19T07:53:28.434Z,25.67
2023-03-19T07:55:55.607Z,25.91
2023-03-19T07:58:23.106Z,26.22
2023-03-19T08:00:50.765Z,26.21
2023-03-19T08:03:18.151Z,26.24
2023-03-19T08:05:45.465Z,26.69
2023-03-19T08:08:13.678Z,27.20
2023-03-19T08:10:41.511Z,27.63
2023-03-19T08:13:09.121Z,27.69
2023-03-19T08:15:36.338Z,27.71
2023-03-19T08:18:05.321Z,27.87
2023-03-19T08:20:33.293Z,27.60
2023-03-19T08:23:01.001Z,27.15
2023-03-19T08:25:32.405Z,26.99
2023-03-19T08:27:59.525Z,27.17
2023-03-19T08:30:26.672Z,27.04
2023-03-19T08:32:53.971Z,26.50
2023-03-19T08:35:21.332Z,26.31
2023-03-19T08:37:48.376Z,26.19
2023-03-19T08:40:16.538Z,25.84
2023-03-19T08:42:45.316Z,25.34
2023-03-19T08:45:15.522Z,24.95
2023-03-19T08:47:43.168Z,24.74
2023-03-19T08:50:12.261Z,24.51
2023-03-19T08:52:39.726Z,24.19
2023-03-19T08:55:08.544Z,23.81
2023-03-19T08:57:36.777Z,23.50
2023-03-19T09:00:05.846Z,23.21
2023-03-19T09:02:32.986Z,23.33
2023-03-19T09:05:01.055Z,23.51
2023-03-19T09:07:28.157Z,23.15
2023-03-19T09:09:55.431Z,22.57
2023-03-19T09:12:22.587Z,22.05
2023-03-19T09:14:49.742Z,21.64
2023-03-19T09:17:18.513Z,21.65
2023-03-19T09:19:45.743Z,21.75
2023-03-19T09:22:12.890Z,21.91
2023-03-19T09:24:40.733Z,22.23
2023-03-19T09:27:08.526Z,22.70
2023-03-19T09:29:35.656Z,23.05
2023-03-19T09:32:02.837Z,23.36
2023-03-19T09:34:30.094Z,23.69
2023-03-19T09:36:57.947Z,23.99
2023-03-19T09:39:25.187Z,24.03
2023-03-19T09:42:04.647Z,24.10
2023-03-19T09:44:35.739Z,24.30
2023-03-19T09:47:14.166Z,24.57
2023-03-19T09:49:44.506Z,24.61
2023-03-19T09:52:22.484Z,24.37
2023-03-19T09:54:53.575Z,24.16
2023-03-19T09:57:21.992Z,23.85
2023-03-19T09:59:49.535Z,23.65
2023-03-19T10:02:39.127Z,23.40
2023-03-19T10:05:17.722Z,23.29
2023-03-19T10:07:59.530Z,23.20
2023-03-19T10:10:45.923Z,22.75
2023-03-19T10:13:26.742Z,22.28
2023-03-19T10:15:55.163Z,21.86
2023-03-19T10:18:26.524Z,21.39
2023-03-19T10:20:59.381Z,21.09
2023-03-19T10:23:41.965Z,20.96
2023-03-19T10:26:13.654Z,20.83
2023-03-19T10:28:43.687Z,20.56
2023-03-19T10:31:27.301Z,20.21
2023-03-19T10:34:05.001Z,19.87
2023-03-19T10:36:37.279Z,19.53
2023-03-19T10:39:07.866Z,19.43
2023-03-19T10:41:45.225Z,19.44
2023-03-19T10:44:23.017Z,19.61
2023-03-19T10:46:50.538Z,19.85
2023-03-19T10:49:18.351Z,19.90
2023-03-19T10:51:48.105Z,20.16
2023-03-19T10:54:25.440Z,20.67
2023-03-19T10:56:56.137Z,20.95
2023-03-19T10:59:33.170Z,21.37
2023-03-19T11:02:03.649Z,21.43
2023-03-19T11:04:32.570Z,21.25
2023-03-19T11:07:11.303Z,20.72
2023-03-19T11:09:40.141Z,20.44
2023-03-19T11:12:18.454Z,20.18
2023-03-19T11:14:48.576Z,19.94
2023-03-19T11:17:25.960Z,20.02
2023-03-19T11:19:55.742Z,20.39
2023-03-19T11:22:25.117Z,20.81
2023-03-19T11:25:01.940Z,21.12
2023-03-19T11:27:32.072Z,21.38
2023-03-19T11:29:59.625Z,21.60
2023-03-19T11:33:01.128Z,21.91
2023-03-19T11:35:31.473Z,22.14
2023-03-19T11:38:01.129Z,22.12
2023-03-19T11:40:38.824Z,22.16
2023-03-19T11:43:40.364Z,22.22
2023-03-19T11:46:15.945Z,22.33
2023-03-19T11:49:01.668Z,22.29
2023-03-19T11:51:34.136Z,22.26
2023-03-19T11:54:12.539Z,22.14
2023-03-19T11:56:47.412Z,21.67
2023-03-19T11:59:27.952Z,21.20
2023-03-19T12:02:19.380Z,20.89
2023-03-19T12:04:59.845Z,20.81
2023-03-19T12:07:34.525Z,20.83
2023-03-19T12:10:17.950Z,20.41
2023-03-19T12:12:51.266Z,19.94
2023-03-19T12:15:28.203Z,19.59
2023-03-19T12:18:07.428Z,19.32
2023-03-19T12:20:51.806Z,19.14
2023-03-19T12:23:35.925Z,18.77
2023-03-19T12:26:09.018Z,18.27
2023-03-19T12:28:45.862Z,17.90
2023-03-19T12:31:45.513Z,17.62
2023-03-19T12:34:25.023Z,17.70
2023-03-19T12:36:57.493Z,17.88
2023-03-19T12:39:31.473Z,18.02
2023-03-19T12:42:02.990Z,18.11
2023-03-19T12:44:35.780Z,18.05
2023-03-19T12:47:08.254Z,17.76
2023-03-19T12:49:42.484Z,17.51
2023-03-19T12:52:21.465Z,17.32
2023-03-19T12:54:52.972Z,17.27
2023-03-19T12:57:24.467Z,17.37
2023-03-19T13:00:00.746Z,17.52
2023-03-19T13:02:36.800Z,17.58
2023-03-19T13:05:10.336Z,17.77
2023-03-19T13:07:48.918Z,17.95
2023-03-19T13:10:21.818Z,18.05
2023-03-19T13:12:51.688Z,18.09
2023-03-19T13:15:25.292Z,18.02
2023-03-19T13:18:04.417Z,17.99
2023-03-19T13:20:46.878Z,17.90
2023-03-19T13:23:21.818Z,17.82
2023-03-19T13:26:00.359Z,17.80
2023-03-19T13:28:31.876Z,17.81
2023-03-19T13:31:07.993Z,17.68
2023-03-19T13:33:37.636Z,17.52
2023-03-19T13:36:09.170Z,17.48
2023-03-19T13:38:42.678Z,17.46
2023-03-19T13:41:47.361Z,17.45
2023-03-19T13:44:33.689Z,17.35
2023-03-19T13:47:04.529Z,17.23
2023-03-19T13:49:36.766Z,17.25
2023-03-19T13:52:30.162Z,17.32
2023-03-19T13:55:19.001Z,17.36
2023-03-19T13:58:12.424Z,17.33
2023-03-19T14:01:10.592Z,17.10
2023-03-19T14:03:41.374Z,16.89
2023-03-19T14:06:34.940Z,16.76
2023-03-19T14:09:03.079Z,16.54
2023-03-19T14:11:33.676Z,16.36
2023-03-19T14:14:06.172Z,16.22
2023-03-19T14:16:35.456Z,16.19
2023-03-19T14:19:05.385Z,16.09
2023-03-19T14:21:46.614Z,15.97
2023-03-19T14:24:55.902Z,15.82
2023-03-19T14:27:29.603Z,15.68
2023-03-19T14:30:12.499Z,15.62
2023-03-19T14:32:43.949Z,15.61
2023-03-19T14:35:20.412Z,15.58
2023-03-19T14:37:52.451Z,15.64
2023-03-19T14:40:26.025Z,15.64
2023-03-19T14:43:04.816Z,15.50
2023-03-19T14:45:56.294Z,15.36
2023-03-19T14:49:13.431Z,15.26
2023-03-19T14:52:01.207Z,15.17
2023-03-19T14:54:37.193Z,15.11
2023-03-19T14:57:17.320Z,14.98
2023-03-19T14:59:44.733Z,14.92
2023-03-19T15:02:24.050Z,14.90
2023-03-19T15:04:52.407Z,14.91
2023-03-19T15:07:25.247Z,14.88
2023-03-19T15:09:58.765Z,14.82
2023-03-19T15:13:09.939Z,14.80
2023-03-19T15:15:49.910Z,14.82
2023-03-19T15:18:20.896Z,14.80
2023-03-19T15:20:54.777Z,14.80
2023-03-19T15:23:27.175Z,14.79
2023-03-19T15:25:58.241Z,14.75
2023-03-19T15:28:28.184Z,14.72
2023-03-19T15:31:26.776Z,14.69
2023-03-19T15:33:53.538Z,14.65
2023-03-19T15:36:26.586Z,14.60
2023-03-19T15:38:58.657Z,14.57
2023-03-19T15:41:29.036Z,14.57
2023-03-19T15:43:57.577Z,14.55
2023-03-19T15:46:28.450Z,14.54
2023-03-19T15:49:00.010Z,14.52
2023-03-19T15:51:29.416Z,14.50
2023-03-19T15:53:57.483Z,14.48
2023-03-19T15:56:25.119Z,14.43
2023-03-19T15:58:54.140Z,14.38
2023-03-19T16:01:22.128Z,14.34
2023-03-19T16:03:56.723Z,14.29
2023-03-19T16:06:27.606Z,14.24
2023-03-19T16:08:57.019Z,14.17
2023-03-19T16:11:34.892Z,14.14
2023-03-19T16:14:03.604Z,14.12
2023-03-19T16:16:34.195Z,14.09
2023-03-19T16:19:02.239Z,14.06
2023-03-19T16:21:36.256Z,14.02
2023-03-19T16:24:14.940Z,13.98
2023-03-19T16:26:43.606Z,13.95
2023-03-19T16:29:24.107Z,13.90
2023-03-19T16:31:54.706Z,13.87
2023-03-19T16:34:46.729Z,13.83
2023-03-19T16:37:35.548Z,13.79
2023-03-19T16:40:05.296Z,13.75
2023-03-19T16:42:42.432Z,13.70
2023-03-19T16:45:26.632Z,13.65
2023-03-19T16:47:55.612Z,13.60
2023-03-19T16:50:29.630Z,13.57
2023-03-19T16:52:57.396Z,13.51
2023-03-19T16:55:27.484Z,13.47
2023-03-19T16:57:59.330Z,13.43
2023-03-19T17:00:30.704Z,13.37
2023-03-19T17:02:59.070Z,13.31
2023-03-19T17:05:28.251Z,13.26
2023-03-19T17:07:56.481Z,13.22
2023-03-19T17:10:25.762Z,13.17
2023-03-19T17:12:56.321Z,13.13
2023-03-19T17:15:28.459Z,13.10
2023-03-19T17:17:55.991Z,13.05
2023-03-19T17:20:29.381Z,13.02
2023-03-19T17:22:56.524Z,12.98
2023-03-19T17:25:25.044Z,12.94
2023-03-19T17:27:52.402Z,12.92
2023-03-19T17:30:20.320Z,12.90
2023-03-19T17:32:51.812Z,12.87
2023-03-19T17:35:21.529Z,12.85
2023-03-19T17:37:50.022Z,12.83
2023-03-19T17:40:27.137Z,12.80
2023-03-19T17:42:55.058Z,12.78
2023-03-19T17:45:27.756Z,12.76
2023-03-19T17:47:57.932Z,12.74
2023-03-19T17:50:27.741Z,12.70
2023-03-19T17:52:55.702Z,12.66
2023-03-19T17:55:25.312Z,12.64
2023-03-19T17:57:53.311Z,12.62
2023-03-19T18:00:22.884Z,12.60
2023-03-19T18:02:52.220Z,12.58
2023-03-19T18:05:21.896Z,12.55
2023-03-19T18:07:50.582Z,12.53
2023-03-19T18:10:21.135Z,12.49
2023-03-19T18:12:49.503Z,12.47
2023-03-19T18:15:17.982Z,12.46
2023-03-19T18:17:50.303Z,12.45
2023-03-19T18:20:18.935Z,12.43
2023-03-19T18:22:55.468Z,12.42
2023-03-19T18:25:25.827Z,12.41
2023-03-19T18:28:13.293Z,12.39
2023-03-19T18:30:43.009Z,12.38
2023-03-19T18:33:16.985Z,12.35
2023-03-19T18:35:46.409Z,12.33
2023-03-19T18:38:20.035Z,12.33
2023-03-19T18:40:47.451Z,12.31
2023-03-19T18:43:17.845Z,12.30
2023-03-19T18:45:46.952Z,12.28
2023-03-19T18:48:23.219Z,12.28
2023-03-19T18:50:50.828Z,12.26
2023-03-19T18:53:18.697Z,12.25
2023-03-19T18:55:53.802Z,12.25
2023-03-19T18:58:24.153Z,12.22
2023-03-19T19:00:52.446Z,12.20
2023-03-19T19:03:21.619Z,12.18
2023-03-19T19:05:49.748Z,12.17
2023-03-19T19:08:20.361Z,12.15
2023-03-19T19:10:51.859Z,12.15
2023-03-19T19:13:23.491Z,12.14
2023-03-19T19:15:52.884Z,12.12
2023-03-19T19:18:23.152Z,12.12
2023-03-19T19:20:52.473Z,12.09
2023-03-19T19:23:20.548Z,12.08
2023-03-19T19:25:51.056Z,12.07
2023-03-19T19:28:26.943Z,12.06
2023-03-19T19:30:55.029Z,12.04
2023-03-19T19:33:25.430Z,12.01
2023-03-19T19:35:53.284Z,11.98
2023-03-19T19:38:20.633Z,11.96
2023-03-19T19:40:51.024Z,11.91
2023-03-19T19:43:21.114Z,11.86
2023-03-19T19:45:50.393Z,11.81
2023-03-19T19:48:21.010Z,11.76
2023-03-19T19:50:51.157Z,11.69
2023-03-19T19:53:18.937Z,11.64
2023-03-19T19:55:47.026Z,11.60
2023-03-19T19:58:21.393Z,11.56
2023-03-19T20:01:02.409Z,11.52
2023-03-19T20:03:32.629Z,11.47
2023-03-19T20:06:01.578Z,11.44
2023-03-19T20:08:28.997Z,11.41
2023-03-19T20:10:57.326Z,11.39
2023-03-19T20:13:27.759Z,11.36
2023-03-19T20:15:57.236Z,11.33
2023-03-19T20:18:29.770Z,11.30
2023-03-19T20:20:58.267Z,11.27
2023-03-19T20:23:26.989Z,11.23
2023-03-19T20:25:55.181Z,11.19
2023-03-19T20:28:25.495Z,11.15
2023-03-19T20:30:54.908Z,11.11
2023-03-19T20:33:25.940Z,11.05
2023-03-19T20:35:53.569Z,11.01
2023-03-19T20:38:20.937Z,10.96
2023-03-19T20:40:51.282Z,10.91
2023-03-19T20:43:28.332Z,10.85
2023-03-19T20:45:56.867Z,10.80
2023-03-19T20:48:24.299Z,10.75
2023-03-19T20:50:52.364Z,10.71
2023-03-19T20:53:19.753Z,10.66
2023-03-19T20:55:56.653Z,10.60
2023-03-19T20:58:28.119Z,10.54
2023-03-19T21:00:56.530Z,10.49
2023-03-19T21:03:34.072Z,10.45
2023-03-19T21:06:06.831Z,10.39
2023-03-19T21:08:37.329Z,10.35
2023-03-19T21:11:32.963Z,10.31
2023-03-19T21:14:00.347Z,10.27
2023-03-19T21:16:30.770Z,10.24
2023-03-19T21:18:59.089Z,10.21
2023-03-19T21:21:32.049Z,10.18
2023-03-19T21:24:02.650Z,10.14
2023-03-19T21:26:30.286Z,10.11
2023-03-19T21:29:04.125Z,10.09
2023-03-19T21:31:34.468Z,10.06
2023-03-19T21:34:02.088Z,10.02
2023-03-19T21:36:29.912Z,9.98
2023-03-19T21:38:58.975Z,9.96
2023-03-19T21:41:30.284Z,9.93
2023-03-19T21:44:00.986Z,9.91
2023-03-19T21:46:30.870Z,9.89
2023-03-19T21:49:13.805Z,9.86
2023-03-19T21:51:42.780Z,9.82
2023-03-19T21:54:10.109Z,9.78
2023-03-19T21:56:41.821Z,9.75
2023-03-19T21:59:15.198Z,9.71
2023-03-19T22:01:42.591Z,9.68
2023-03-19T22:04:09.840Z,9.66
2023-03-19T22:06:37.735Z,9.64
2023-03-19T22:09:05.682Z,9.62
2023-03-19T22:11:36.535Z,9.60
2023-03-19T22:14:07.818Z,9.59
2023-03-19T22:16:38.623Z,9.56
2023-03-19T22:19:12.520Z,9.55
2023-03-19T22:21:39.650Z,9.53
2023-03-19T22:24:11.260Z,9.51
2023-03-19T22:26:43.404Z,9.50
2023-03-19T22:29:25.528Z,9.47
2023-03-19T22:32:18.388Z,9.44
2023-03-19T22:34:46.151Z,9.42
2023-03-19T22:37:27.444Z,9.40
2023-03-19T22:39:58.267Z,9.36
2023-03-19T22:42:33.408Z,9.32
2023-03-19T22:45:01.070Z,9.27
2023-03-19T22:47:49.074Z,9.22
2023-03-19T22:50:28.575Z,9.17
2023-03-19T22:52:57.248Z,9.14
2023-03-19T22:55:37.050Z,9.10
2023-03-19T22:58:04.454Z,9.06
2023-03-19T23:00:32.102Z,8.98
2023-03-19T23:03:00.995Z,8.94
2023-03-19T23:05:36.303Z,8.90
2023-03-19T23:08:06.168Z,8.86
2023-03-19T23:10:36.065Z,8.81
2023-03-19T23:13:03.244Z,8.76
2023-03-19T23:15:33.032Z,8.71
2023-03-19T23:18:02.382Z,8.66
2023-03-19T23:20:33.946Z,8.63
2023-03-19T23:23:02.323Z,8.61
2023-03-19T23:25:31.558Z,8.57
2023-03-19T23:28:02.536Z,8.54
2023-03-19T23:30:32.378Z,8.51
2023-03-19T23:33:01.316Z,8.49
2023-03-19T23:35:30.224Z,8.48
2023-03-19T23:37:58.180Z,8.47
2023-03-19T23:40:28.239Z,8.47
2023-03-19T23:42:56.710Z,8.46
2023-03-19T23:45:35.450Z,8.45
2023-03-19T23:48:06.216Z,8.43
2023-03-19T23:50:33.982Z,8.39
2023-03-19T23:53:01.849Z,8.37
2023-03-19T23:55:30.126Z,8.37
2023-03-19T23:57:58.354Z,8.36
